sensor_id;sensor_type;location;lat;lon;timestamp;P1;durP1;ratioP1;P2;durP2;ratioP2
47713;SDS011;33475;46.614;13.888;2024-01-07T00:01:27;5.97;;;5.22;;
47713;SDS011;33475;46.614;13.888;2024-01-07T00:03:53;5.63;;;5.13;;
47713;SDS011;33475;46.614;13.888;2024-01-07T00:06:19;9.95;;;6.32;;
47713;SDS011;33475;46.614;13.888;2024-01-07T00:08:46;22.70;;;11.10;;
47713;SDS011;33475;46.614;13.888;2024-01-07T00:11:13;24.00;;;10.23;;
47713;SDS011;33475;46.614;13.888;2024-01-07T00:13:39;17.08;;;9.40;;
47713;SDS011;33475;46.614;13.888;2024-01-07T00:16:05;14.30;;;9.35;;
47713;SDS011;33475;46.614;13.888;2024-01-07T00:18:32;11.15;;;7.97;;
47713;SDS011;33475;46.614;13.888;2024-01-07T00:20:58;13.52;;;9.90;;
47713;SDS011;33475;46.614;13.888;2024-01-07T00:23:24;11.35;;;9.65;;
47713;SDS011;33475;46.614;13.888;2024-01-07T00:25:50;6.95;;;5.90;;
47713;SDS011;33475;46.614;13.888;2024-01-07T00:28:16;6.85;;;5.57;;
47713;SDS011;33475;46.614;13.888;2024-01-07T00:30:43;7.05;;;5.32;;
47713;SDS011;33475;46.614;13.888;2024-01-07T00:33:09;8.40;;;6.32;;
47713;SDS011;33475;46.614;13.888;2024-01-07T00:35:35;5.88;;;5.10;;
47713;SDS011;33475;46.614;13.888;2024-01-07T00:38:01;6.15;;;5.55;;
47713;SDS011;33475;46.614;13.888;2024-01-07T00:40:27;6.20;;;4.82;;
47713;SDS011;33475;46.614;13.888;2024-01-07T00:42:54;5.35;;;4.88;;
47713;SDS011;33475;46.614;13.888;2024-01-07T00:45:20;5.70;;;5.20;;
47713;SDS011;33475;46.614;13.888;2024-01-07T00:47:47;5.68;;;5.18;;
47713;SDS011;33475;46.614;13.888;2024-01-07T00:50:13;6.93;;;6.00;;
47713;SDS011;33475;46.614;13.888;2024-01-07T00:52:39;6.40;;;5.80;;
47713;SDS011;33475;46.614;13.888;2024-01-07T00:55:07;8.82;;;5.63;;
47713;SDS011;33475;46.614;13.888;2024-01-07T00:57:34;5.93;;;5.35;;
47713;SDS011;33475;46.614;13.888;2024-01-07T01:00:01;5.90;;;5.30;;
47713;SDS011;33475;46.614;13.888;2024-01-07T01:02:31;7.03;;;5.82;;
47713;SDS011;33475;46.614;13.888;2024-01-07T01:04:57;6.65;;;6.00;;
47713;SDS011;33475;46.614;13.888;2024-01-07T01:07:23;8.10;;;6.22;;
47713;SDS011;33475;46.614;13.888;2024-01-07T01:09:49;8.90;;;6.15;;
47713;SDS011;33475;46.614;13.888;2024-01-07T01:12:15;6.55;;;5.95;;
47713;SDS011;33475;46.614;13.888;2024-01-07T01:14:42;5.85;;;5.28;;
47713;SDS011;33475;46.614;13.888;2024-01-07T01:17:08;6.82;;;5.18;;
47713;SDS011;33475;46.614;13.888;2024-01-07T01:19:34;7.28;;;5.00;;
47713;SDS011;33475;46.614;13.888;2024-01-07T01:22:00;6.22;;;5.10;;
47713;SDS011;33475;46.614;13.888;2024-01-07T01:24:26;5.45;;;4.95;;
47713;SDS011;33475;46.614;13.888;2024-01-07T01:26:52;6.18;;;5.65;;
47713;SDS011;33475;46.614;13.888;2024-01-07T01:29:19;5.28;;;4.78;;
47713;SDS011;33475;46.614;13.888;2024-01-07T01:31:45;5.00;;;4.60;;
47713;SDS011;33475;46.614;13.888;2024-01-07T01:34:11;6.50;;;5.32;;
47713;SDS011;33475;46.614;13.888;2024-01-07T01:36:37;8.07;;;6.20;;
47713;SDS011;33475;46.614;13.888;2024-01-07T01:39:04;5.05;;;4.57;;
47713;SDS011;33475;46.614;13.888;2024-01-07T01:41:30;6.00;;;5.43;;
47713;SDS011;33475;46.614;13.888;2024-01-07T01:43:57;9.05;;;7.20;;
47713;SDS011;33475;46.614;13.888;2024-01-07T01:46:23;9.32;;;6.78;;
47713;SDS011;33475;46.614;13.888;2024-01-07T01:48:50;6.30;;;5.70;;
47713;SDS011;33475;46.614;13.888;2024-01-07T01:51:17;5.40;;;4.90;;
47713;SDS011;33475;46.614;13.888;2024-01-07T01:53:44;7.55;;;4.60;;
47713;SDS011;33475;46.614;13.888;2024-01-07T01:56:10;4.47;;;4.07;;
47713;SDS011;33475;46.614;13.888;2024-01-07T01:58:37;3.80;;;3.50;;
47713;SDS011;33475;46.614;13.888;2024-01-07T02:01:03;4.18;;;3.72;;
47713;SDS011;33475;46.614;13.888;2024-01-07T02:03:29;3.50;;;3.20;;
47713;SDS011;33475;46.614;13.888;2024-01-07T02:05:56;4.72;;;4.32;;
47713;SDS011;33475;46.614;13.888;2024-01-07T02:08:23;4.93;;;4.53;;
47713;SDS011;33475;46.614;13.888;2024-01-07T02:10:51;4.18;;;3.40;;
47713;SDS011;33475;46.614;13.888;2024-01-07T02:13:17;2.78;;;2.50;;
47713;SDS011;33475;46.614;13.888;2024-01-07T02:15:43;3.30;;;2.80;;
47713;SDS011;33475;46.614;13.888;2024-01-07T02:18:09;4.05;;;3.75;;
47713;SDS011;33475;46.614;13.888;2024-01-07T02:20:36;13.07;;;7.03;;
47713;SDS011;33475;46.614;13.888;2024-01-07T02:23:02;3.60;;;3.08;;
47713;SDS011;33475;46.614;13.888;2024-01-07T02:25:29;4.72;;;4.32;;
47713;SDS011;33475;46.614;13.888;2024-01-07T02:27:55;14.90;;;10.18;;
47713;SDS011;33475;46.614;13.888;2024-01-07T02:30:21;5.57;;;5.07;;
47713;SDS011;33475;46.614;13.888;2024-01-07T02:32:48;5.03;;;4.57;;
47713;SDS011;33475;46.614;13.888;2024-01-07T02:35:14;2.65;;;2.45;;
47713;SDS011;33475;46.614;13.888;2024-01-07T02:37:40;2.47;;;2.28;;
47713;SDS011;33475;46.614;13.888;2024-01-07T02:40:07;2.92;;;2.67;;
47713;SDS011;33475;46.614;13.888;2024-01-07T02:42:33;3.03;;;2.72;;
47713;SDS011;33475;46.614;13.888;2024-01-07T02:44:59;3.15;;;2.72;;
47713;SDS011;33475;46.614;13.888;2024-01-07T02:47:25;3.70;;;3.30;;
47713;SDS011;33475;46.614;13.888;2024-01-07T02:49:52;3.33;;;3.10;;
47713;SDS011;33475;46.614;13.888;2024-01-07T02:52:18;3.15;;;2.95;;
47713;SDS011;33475;46.614;13.888;2024-01-07T02:54:44;3.67;;;3.03;;
47713;SDS011;33475;46.614;13.888;2024-01-07T02:57:10;3.67;;;3.28;;
47713;SDS011;33475;46.614;13.888;2024-01-07T02:59:36;3.60;;;3.30;;
47713;SDS011;33475;46.614;13.888;2024-01-07T03:02:03;3.03;;;2.83;;
47713;SDS011;33475;46.614;13.888;2024-01-07T03:04:29;3.55;;;3.25;;
47713;SDS011;33475;46.614;13.888;2024-01-07T03:06:55;3.40;;;3.10;;
47713;SDS011;33475;46.614;13.888;2024-01-07T03:09:21;2.90;;;2.70;;
47713;SDS011;33475;46.614;13.888;2024-01-07T03:11:47;3.00;;;2.80;;
47713;SDS011;33475;46.614;13.888;2024-01-07T03:14:13;4.03;;;3.72;;
47713;SDS011;33475;46.614;13.888;2024-01-07T03:16:43;4.03;;;3.63;;
47713;SDS011;33475;46.614;13.888;2024-01-07T03:19:09;3.55;;;3.25;;
47713;SDS011;33475;46.614;13.888;2024-01-07T03:21:36;4.03;;;3.72;;
47713;SDS011;33475;46.614;13.888;2024-01-07T03:24:02;3.53;;;3.22;;
47713;SDS011;33475;46.614;13.888;2024-01-07T03:26:32;3.65;;;3.35;;
47713;SDS011;33475;46.614;13.888;2024-01-07T03:28:58;3.25;;;3.05;;
47713;SDS011;33475;46.614;13.888;2024-01-07T03:31:26;3.50;;;3.20;;
47713;SDS011;33475;46.614;13.888;2024-01-07T03:33:52;3.70;;;3.40;;
47713;SDS011;33475;46.614;13.888;2024-01-07T03:36:18;3.67;;;3.38;;
47713;SDS011;33475;46.614;13.888;2024-01-07T03:38:45;3.70;;;3.40;;
47713;SDS011;33475;46.614;13.888;2024-01-07T03:41:18;3.40;;;3.10;;
47713;SDS011;33475;46.614;13.888;2024-01-07T03:43:45;2.97;;;2.78;;
47713;SDS011;33475;46.614;13.888;2024-01-07T03:46:11;3.67;;;3.38;;
47713;SDS011;33475;46.614;13.888;2024-01-07T03:48:37;3.97;;;3.67;;
47713;SDS011;33475;46.614;13.888;2024-01-07T03:51:04;3.47;;;3.17;;
47713;SDS011;33475;46.614;13.888;2024-01-07T03:53:30;3.90;;;3.60;;
47713;SDS011;33475;46.614;13.888;2024-01-07T03:55:56;3.67;;;3.35;;
47713;SDS011;33475;46.614;13.888;2024-01-07T03:58:22;3.25;;;2.95;;
47713;SDS011;33475;46.614;13.888;2024-01-07T04:00:48;3.30;;;3.10;;
47713;SDS011;33475;46.614;13.888;2024-01-07T04:03:15;3.30;;;3.00;;
47713;SDS011;33475;46.614;13.888;2024-01-07T04:05:41;2.90;;;2.70;;
47713;SDS011;33475;46.614;13.888;2024-01-07T04:08:10;3.50;;;3.20;;
47713;SDS011;33475;46.614;13.888;2024-01-07T04:10:37;3.35;;;2.90;;
47713;SDS011;33475;46.614;13.888;2024-01-07T04:13:06;3.65;;;3.35;;
47713;SDS011;33475;46.614;13.888;2024-01-07T04:15:32;3.58;;;3.28;;
47713;SDS011;33475;46.614;13.888;2024-01-07T04:18:02;3.47;;;3.17;;
47713;SDS011;33475;46.614;13.888;2024-01-07T04:20:29;5.18;;;3.20;;
47713;SDS011;33475;46.614;13.888;2024-01-07T04:22:55;4.10;;;3.70;;
47713;SDS011;33475;46.614;13.888;2024-01-07T04:25:22;3.80;;;3.35;;
47713;SDS011;33475;46.614;13.888;2024-01-07T04:27:49;3.85;;;3.53;;
47713;SDS011;33475;46.614;13.888;2024-01-07T04:30:15;3.83;;;3.53;;
47713;SDS011;33475;46.614;13.888;2024-01-07T04:32:41;4.25;;;3.30;;
47713;SDS011;33475;46.614;13.888;2024-01-07T04:35:07;4.00;;;3.60;;
47713;SDS011;33475;46.614;13.888;2024-01-07T04:37:34;3.42;;;3.13;;
47713;SDS011;33475;46.614;13.888;2024-01-07T04:40:01;4.20;;;3.80;;
47713;SDS011;33475;46.614;13.888;2024-01-07T04:42:27;4.30;;;3.38;;
47713;SDS011;33475;46.614;13.888;2024-01-07T04:44:54;3.95;;;3.60;;
47713;SDS011;33475;46.614;13.888;2024-01-07T04:47:25;3.15;;;2.90;;
47713;SDS011;33475;46.614;13.888;2024-01-07T04:49:52;3.13;;;2.92;;
47713;SDS011;33475;46.614;13.888;2024-01-07T04:52:18;3.15;;;2.85;;
47713;SDS011;33475;46.614;13.888;2024-01-07T04:54:44;3.90;;;3.60;;
47713;SDS011;33475;46.614;13.888;2024-01-07T04:57:10;4.63;;;3.75;;
47713;SDS011;33475;46.614;13.888;2024-01-07T04:59:37;4.60;;;3.97;;
47713;SDS011;33475;46.614;13.888;2024-01-07T05:02:03;4.40;;;4.00;;
47713;SDS011;33475;46.614;13.888;2024-01-07T05:04:29;4.75;;;4.25;;
47713;SDS011;33475;46.614;13.888;2024-01-07T05:06:55;5.90;;;4.15;;
47713;SDS011;33475;46.614;13.888;2024-01-07T05:09:22;4.28;;;3.88;;
47713;SDS011;33475;46.614;13.888;2024-01-07T05:11:48;3.45;;;3.15;;
47713;SDS011;33475;46.614;13.888;2024-01-07T05:14:14;4.45;;;3.28;;
47713;SDS011;33475;46.614;13.888;2024-01-07T05:16:40;3.75;;;3.45;;
47713;SDS011;33475;46.614;13.888;2024-01-07T05:19:06;3.85;;;3.50;;
47713;SDS011;33475;46.614;13.888;2024-01-07T05:21:32;3.08;;;2.88;;
47713;SDS011;33475;46.614;13.888;2024-01-07T05:23:58;4.60;;;3.20;;
47713;SDS011;33475;46.614;13.888;2024-01-07T05:26:25;3.10;;;2.90;;
47713;SDS011;33475;46.614;13.888;2024-01-07T05:28:51;3.60;;;3.28;;
47713;SDS011;33475;46.614;13.888;2024-01-07T05:31:17;3.55;;;3.25;;
47713;SDS011;33475;46.614;13.888;2024-01-07T05:33:44;3.75;;;3.45;;
47713;SDS011;33475;46.614;13.888;2024-01-07T05:36:11;3.47;;;3.17;;
47713;SDS011;33475;46.614;13.888;2024-01-07T05:38:37;3.75;;;3.45;;
47713;SDS011;33475;46.614;13.888;2024-01-07T05:41:04;5.57;;;4.93;;
47713;SDS011;33475;46.614;13.888;2024-01-07T05:43:30;11.52;;;5.93;;
47713;SDS011;33475;46.614;13.888;2024-01-07T05:45:56;4.43;;;4.03;;
47713;SDS011;33475;46.614;13.888;2024-01-07T05:48:23;3.83;;;3.53;;
47713;SDS011;33475;46.614;13.888;2024-01-07T05:50:49;3.90;;;3.60;;
47713;SDS011;33475;46.614;13.888;2024-01-07T05:53:16;4.40;;;4.00;;
47713;SDS011;33475;46.614;13.888;2024-01-07T05:55:43;5.80;;;5.00;;
47713;SDS011;33475;46.614;13.888;2024-01-07T05:58:09;5.20;;;3.45;;
47713;SDS011;33475;46.614;13.888;2024-01-07T06:00:35;8.20;;;3.47;;
47713;SDS011;33475;46.614;13.888;2024-01-07T06:03:01;3.20;;;2.90;;
47713;SDS011;33475;46.614;13.888;2024-01-07T06:05:27;3.28;;;3.05;;
47713;SDS011;33475;46.614;13.888;2024-01-07T06:07:54;4.88;;;3.25;;
47713;SDS011;33475;46.614;13.888;2024-01-07T06:10:20;4.05;;;3.20;;
47713;SDS011;33475;46.614;13.888;2024-01-07T06:12:46;3.10;;;2.90;;
47713;SDS011;33475;46.614;13.888;2024-01-07T06:15:12;3.08;;;2.88;;
47713;SDS011;33475;46.614;13.888;2024-01-07T06:17:38;3.40;;;3.10;;
47713;SDS011;33475;46.614;13.888;2024-01-07T06:20:05;3.10;;;2.80;;
47713;SDS011;33475;46.614;13.888;2024-01-07T06:22:33;3.72;;;3.38;;
47713;SDS011;33475;46.614;13.888;2024-01-07T06:24:59;4.70;;;3.00;;
47713;SDS011;33475;46.614;13.888;2024-01-07T06:27:25;3.92;;;3.08;;
47713;SDS011;33475;46.614;13.888;2024-01-07T06:29:51;3.25;;;3.05;;
47713;SDS011;33475;46.614;13.888;2024-01-07T06:32:17;5.07;;;3.20;;
47713;SDS011;33475;46.614;13.888;2024-01-07T06:34:44;4.28;;;3.80;;
47713;SDS011;33475;46.614;13.888;2024-01-07T06:37:10;3.33;;;3.03;;
47713;SDS011;33475;46.614;13.888;2024-01-07T06:39:36;6.32;;;5.82;;
47713;SDS011;33475;46.614;13.888;2024-01-07T06:42:03;3.95;;;3.65;;
47713;SDS011;33475;46.614;13.888;2024-01-07T06:44:29;3.50;;;3.20;;
47713;SDS011;33475;46.614;13.888;2024-01-07T06:46:55;3.90;;;3.60;;
47713;SDS011;33475;46.614;13.888;2024-01-07T06:49:22;3.03;;;2.80;;
47713;SDS011;33475;46.614;13.888;2024-01-07T06:51:48;3.17;;;2.88;;
47713;SDS011;33475;46.614;13.888;2024-01-07T06:54:14;3.25;;;3.00;;
47713;SDS011;33475;46.614;13.888;2024-01-07T06:56:40;3.38;;;3.08;;
47713;SDS011;33475;46.614;13.888;2024-01-07T06:59:06;2.78;;;2.55;;
47713;SDS011;33475;46.614;13.888;2024-01-07T07:01:33;4.38;;;2.60;;
47713;SDS011;33475;46.614;13.888;2024-01-07T07:03:59;3.33;;;3.03;;
47713;SDS011;33475;46.614;13.888;2024-01-07T07:06:26;4.07;;;3.67;;
47713;SDS011;33475;46.614;13.888;2024-01-07T07:08:52;4.97;;;3.78;;
47713;SDS011;33475;46.614;13.888;2024-01-07T07:11:18;4.78;;;3.47;;
47713;SDS011;33475;46.614;13.888;2024-01-07T07:13:44;3.30;;;3.00;;
47713;SDS011;33475;46.614;13.888;2024-01-07T07:16:11;3.30;;;3.00;;
47713;SDS011;33475;46.614;13.888;2024-01-07T07:18:37;3.42;;;2.95;;
47713;SDS011;33475;46.614;13.888;2024-01-07T07:21:03;3.50;;;3.20;;
47713;SDS011;33475;46.614;13.888;2024-01-07T07:23:29;2.90;;;2.70;;
47713;SDS011;33475;46.614;13.888;2024-01-07T07:25:56;3.70;;;3.05;;
47713;SDS011;33475;46.614;13.888;2024-01-07T07:28:22;4.38;;;3.53;;
47713;SDS011;33475;46.614;13.888;2024-01-07T07:30:48;3.90;;;3.60;;
47713;SDS011;33475;46.614;13.888;2024-01-07T07:33:14;4.82;;;3.75;;
47713;SDS011;33475;46.614;13.888;2024-01-07T07:35:40;3.65;;;3.35;;
47713;SDS011;33475;46.614;13.888;2024-01-07T07:38:07;3.85;;;3.20;;
47713;SDS011;33475;46.614;13.888;2024-01-07T07:40:33;4.05;;;3.63;;
47713;SDS011;33475;46.614;13.888;2024-01-07T07:42:59;6.20;;;4.00;;
47713;SDS011;33475;46.614;13.888;2024-01-07T07:45:26;3.75;;;3.30;;
47713;SDS011;33475;46.614;13.888;2024-01-07T07:47:52;3.03;;;2.72;;
47713;SDS011;33475;46.614;13.888;2024-01-07T07:50:18;3.38;;;3.05;;
47713;SDS011;33475;46.614;13.888;2024-01-07T07:52:44;3.75;;;2.90;;
47713;SDS011;33475;46.614;13.888;2024-01-07T07:55:10;3.47;;;3.17;;
47713;SDS011;33475;46.614;13.888;2024-01-07T07:57:36;5.88;;;3.90;;
47713;SDS011;33475;46.614;13.888;2024-01-07T08:00:03;6.22;;;3.88;;
47713;SDS011;33475;46.614;13.888;2024-01-07T08:02:30;5.63;;;3.60;;
47713;SDS011;33475;46.614;13.888;2024-01-07T08:04:56;5.32;;;3.80;;
47713;SDS011;33475;46.614;13.888;2024-01-07T08:07:22;4.13;;;3.17;;
47713;SDS011;33475;46.614;13.888;2024-01-07T08:09:48;4.13;;;3.25;;
47713;SDS011;33475;46.614;13.888;2024-01-07T08:12:15;4.07;;;3.20;;
47713;SDS011;33475;46.614;13.888;2024-01-07T08:14:41;4.22;;;3.38;;
47713;SDS011;33475;46.614;13.888;2024-01-07T08:17:07;4.10;;;3.70;;
47713;SDS011;33475;46.614;13.888;2024-01-07T08:19:35;4.50;;;4.07;;
47713;SDS011;33475;46.614;13.888;2024-01-07T08:22:02;4.35;;;3.95;;
47713;SDS011;33475;46.614;13.888;2024-01-07T08:24:29;5.95;;;4.10;;
47713;SDS011;33475;46.614;13.888;2024-01-07T08:26:55;4.75;;;3.85;;
47713;SDS011;33475;46.614;13.888;2024-01-07T08:29:21;4.40;;;4.00;;
47713;SDS011;33475;46.614;13.888;2024-01-07T08:31:48;3.85;;;3.55;;
47713;SDS011;33475;46.614;13.888;2024-01-07T08:34:14;3.42;;;3.13;;
47713;SDS011;33475;46.614;13.888;2024-01-07T08:36:41;4.05;;;3.65;;
47713;SDS011;33475;46.614;13.888;2024-01-07T08:39:07;3.85;;;3.55;;
47713;SDS011;33475;46.614;13.888;2024-01-07T08:41:33;3.95;;;3.55;;
47713;SDS011;33475;46.614;13.888;2024-01-07T08:43:59;5.75;;;3.17;;
47713;SDS011;33475;46.614;13.888;2024-01-07T08:46:26;2.92;;;2.60;;
47713;SDS011;33475;46.614;13.888;2024-01-07T08:48:52;3.15;;;2.72;;
47713;SDS011;33475;46.614;13.888;2024-01-07T08:51:18;3.03;;;2.45;;
47713;SDS011;33475;46.614;13.888;2024-01-07T08:53:44;2.78;;;2.28;;
47713;SDS011;33475;46.614;13.888;2024-01-07T08:56:11;2.45;;;2.25;;
47713;SDS011;33475;46.614;13.888;2024-01-07T08:58:40;3.35;;;3.05;;
47713;SDS011;33475;46.614;13.888;2024-01-07T09:01:06;3.00;;;2.63;;
47713;SDS011;33475;46.614;13.888;2024-01-07T09:03:32;3.97;;;2.35;;
47713;SDS011;33475;46.614;13.888;2024-01-07T09:05:58;4.43;;;2.90;;
47713;SDS011;33475;46.614;13.888;2024-01-07T09:08:24;2.80;;;2.38;;
47713;SDS011;33475;46.614;13.888;2024-01-07T09:10:51;2.53;;;2.33;;
47713;SDS011;33475;46.614;13.888;2024-01-07T09:13:17;2.38;;;2.17;;
47713;SDS011;33475;46.614;13.888;2024-01-07T09:15:43;2.55;;;2.35;;
47713;SDS011;33475;46.614;13.888;2024-01-07T09:18:09;2.70;;;2.50;;
47713;SDS011;33475;46.614;13.888;2024-01-07T09:20:35;3.40;;;3.00;;
47713;SDS011;33475;46.614;13.888;2024-01-07T09:23:02;5.38;;;4.43;;
47713;SDS011;33475;46.614;13.888;2024-01-07T09:25:28;123.80;;;32.72;;
47713;SDS011;33475;46.614;13.888;2024-01-07T09:27:54;231.23;;;62.72;;
47713;SDS011;33475;46.614;13.888;2024-01-07T09:30:21;225.93;;;63.80;;
47713;SDS011;33475;46.614;13.888;2024-01-07T09:32:47;26.75;;;11.75;;
47713;SDS011;33475;46.614;13.888;2024-01-07T09:35:13;4.70;;;4.28;;
47713;SDS011;33475;46.614;13.888;2024-01-07T09:37:39;30.40;;;13.57;;
47713;SDS011;33475;46.614;13.888;2024-01-07T09:40:06;5.93;;;4.82;;
47713;SDS011;33475;46.614;13.888;2024-01-07T09:42:33;2.95;;;2.70;;
47713;SDS011;33475;46.614;13.888;2024-01-07T09:45:02;3.38;;;2.90;;
47713;SDS011;33475;46.614;13.888;2024-01-07T09:47:29;2.55;;;2.35;;
47713;SDS011;33475;46.614;13.888;2024-01-07T09:49:56;3.13;;;2.42;;
47713;SDS011;33475;46.614;13.888;2024-01-07T09:52:22;3.95;;;3.55;;
47713;SDS011;33475;46.614;13.888;2024-01-07T09:54:51;2.63;;;2.38;;
47713;SDS011;33475;46.614;13.888;2024-01-07T09:57:18;6.65;;;4.72;;
47713;SDS011;33475;46.614;13.888;2024-01-07T09:59:44;7.38;;;5.38;;
47713;SDS011;33475;46.614;13.888;2024-01-07T10:02:12;12.02;;;7.55;;
47713;SDS011;33475;46.614;13.888;2024-01-07T10:04:38;1.88;;;1.77;;
47713;SDS011;33475;46.614;13.888;2024-01-07T10:07:04;1.85;;;1.75;;
47713;SDS011;33475;46.614;13.888;2024-01-07T10:09:32;2.08;;;1.73;;
47713;SDS011;33475;46.614;13.888;2024-01-07T10:11:59;2.95;;;1.80;;
47713;SDS011;33475;46.614;13.888;2024-01-07T10:14:25;2.67;;;2.17;;
47713;SDS011;33475;46.614;13.888;2024-01-07T10:16:52;2.38;;;1.70;;
47713;SDS011;33475;46.614;13.888;2024-01-07T10:19:21;2.38;;;1.60;;
47713;SDS011;33475;46.614;13.888;2024-01-07T10:22:00;1.73;;;1.63;;
47713;SDS011;33475;46.614;13.888;2024-01-07T10:24:31;1.65;;;1.55;;
47713;SDS011;33475;46.614;13.888;2024-01-07T10:27:02;1.63;;;1.52;;
47713;SDS011;33475;46.614;13.888;2024-01-07T10:29:29;2.00;;;1.80;;
47713;SDS011;33475;46.614;13.888;2024-01-07T10:31:56;2.80;;;1.77;;
47713;SDS011;33475;46.614;13.888;2024-01-07T10:34:22;6.05;;;4.25;;
47713;SDS011;33475;46.614;13.888;2024-01-07T10:36:50;5.57;;;3.75;;
47713;SDS011;33475;46.614;13.888;2024-01-07T10:39:17;6.13;;;5.53;;
47713;SDS011;33475;46.614;13.888;2024-01-07T10:41:43;8.45;;;6.70;;
47713;SDS011;33475;46.614;13.888;2024-01-07T10:44:11;4.30;;;3.90;;
47713;SDS011;33475;46.614;13.888;2024-01-07T10:46:37;2.50;;;1.90;;
47713;SDS011;33475;46.614;13.888;2024-01-07T10:49:04;2.40;;;2.20;;
47713;SDS011;33475;46.614;13.888;2024-01-07T10:51:34;1.63;;;1.52;;
47713;SDS011;33475;46.614;13.888;2024-01-07T10:54:00;1.55;;;1.42;;
47713;SDS011;33475;46.614;13.888;2024-01-07T10:56:33;1.98;;;1.58;;
47713;SDS011;33475;46.614;13.888;2024-01-07T10:59:03;5.55;;;4.63;;
47713;SDS011;33475;46.614;13.888;2024-01-07T11:01:29;10.90;;;9.23;;
47713;SDS011;33475;46.614;13.888;2024-01-07T11:03:57;16.20;;;10.82;;
47713;SDS011;33475;46.614;13.888;2024-01-07T11:06:34;9.15;;;6.45;;
47713;SDS011;33475;46.614;13.888;2024-01-07T11:09:48;3.50;;;2.53;;
47713;SDS011;33475;46.614;13.888;2024-01-07T11:11:49;9.35;;;5.70;;
47713;SDS011;33475;46.614;13.888;2024-01-07T11:14:34;4.32;;;3.08;;
47713;SDS011;33475;46.614;13.888;2024-01-07T11:17:01;5.57;;;3.03;;
47713;SDS011;33475;46.614;13.888;2024-01-07T11:19:28;2.67;;;2.38;;
47713;SDS011;33475;46.614;13.888;2024-01-07T11:22:20;3.83;;;2.65;;
47713;SDS011;33475;46.614;13.888;2024-01-07T11:24:40;4.53;;;2.65;;
47713;SDS011;33475;46.614;13.888;2024-01-07T11:27:10;3.30;;;2.83;;
47713;SDS011;33475;46.614;13.888;2024-01-07T11:29:36;7.30;;;4.75;;
47713;SDS011;33475;46.614;13.888;2024-01-07T11:32:03;5.05;;;3.72;;
47713;SDS011;33475;46.614;13.888;2024-01-07T11:34:41;2.53;;;2.22;;
47713;SDS011;33475;46.614;13.888;2024-01-07T11:37:18;3.80;;;2.40;;
47713;SDS011;33475;46.614;13.888;2024-01-07T11:39:45;3.35;;;2.53;;
47713;SDS011;33475;46.614;13.888;2024-01-07T11:42:11;2.85;;;2.22;;
47713;SDS011;33475;46.614;13.888;2024-01-07T11:44:44;2.00;;;1.80;;
47713;SDS011;33475;46.614;13.888;2024-01-07T11:47:12;2.10;;;1.60;;
47713;SDS011;33475;46.614;13.888;2024-01-07T11:49:39;2.63;;;1.70;;
47713;SDS011;33475;46.614;13.888;2024-01-07T11:52:05;1.77;;;1.67;;
47713;SDS011;33475;46.614;13.888;2024-01-07T11:54:31;1.90;;;1.80;;
47713;SDS011;33475;46.614;13.888;2024-01-07T11:56:58;4.10;;;1.88;;
47713;SDS011;33475;46.614;13.888;2024-01-07T11:59:24;1.98;;;1.88;;
47713;SDS011;33475;46.614;13.888;2024-01-07T12:01:51;3.50;;;2.55;;
47713;SDS011;33475;46.614;13.888;2024-01-07T12:04:17;3.15;;;2.10;;
47713;SDS011;33475;46.614;13.888;2024-01-07T12:06:44;2.65;;;2.42;;
47713;SDS011;33475;46.614;13.888;2024-01-07T12:09:12;3.00;;;2.80;;
47713;SDS011;33475;46.614;13.888;2024-01-07T12:11:39;2.78;;;2.58;;
47713;SDS011;33475;46.614;13.888;2024-01-07T12:14:06;3.45;;;3.15;;
47713;SDS011;33475;46.614;13.888;2024-01-07T12:16:33;3.42;;;3.10;;
47713;SDS011;33475;46.614;13.888;2024-01-07T12:19:00;3.55;;;3.10;;
47713;SDS011;33475;46.614;13.888;2024-01-07T12:21:26;2.88;;;2.55;;
47713;SDS011;33475;46.614;13.888;2024-01-07T12:23:54;5.13;;;3.33;;
47713;SDS011;33475;46.614;13.888;2024-01-07T12:26:25;3.28;;;2.97;;
47713;SDS011;33475;46.614;13.888;2024-01-07T12:28:53;7.47;;;3.30;;
47713;SDS011;33475;46.614;13.888;2024-01-07T12:31:20;4.82;;;3.28;;
47713;SDS011;33475;46.614;13.888;2024-01-07T12:33:46;3.28;;;2.97;;
47713;SDS011;33475;46.614;13.888;2024-01-07T12:36:12;5.93;;;3.80;;
47713;SDS011;33475;46.614;13.888;2024-01-07T12:38:40;17.85;;;8.85;;
47713;SDS011;33475;46.614;13.888;2024-01-07T12:41:06;14.15;;;7.05;;
47713;SDS011;33475;46.614;13.888;2024-01-07T12:43:33;7.90;;;4.97;;
47713;SDS011;33475;46.614;13.888;2024-01-07T12:45:59;4.07;;;2.90;;
47713;SDS011;33475;46.614;13.888;2024-01-07T12:48:31;3.25;;;2.78;;
47713;SDS011;33475;46.614;13.888;2024-01-07T12:50:58;5.75;;;3.13;;
47713;SDS011;33475;46.614;13.888;2024-01-07T12:53:24;4.78;;;2.72;;
47713;SDS011;33475;46.614;13.888;2024-01-07T12:55:51;5.60;;;2.92;;
47713;SDS011;33475;46.614;13.888;2024-01-07T12:58:18;4.25;;;2.83;;
47713;SDS011;33475;46.614;13.888;2024-01-07T13:00:46;4.80;;;4.13;;
47713;SDS011;33475;46.614;13.888;2024-01-07T13:03:12;4.60;;;3.80;;
47713;SDS011;33475;46.614;13.888;2024-01-07T13:05:45;4.68;;;3.55;;
47713;SDS011;33475;46.614;13.888;2024-01-07T13:08:16;4.47;;;3.72;;
47713;SDS011;33475;46.614;13.888;2024-01-07T13:10:47;7.82;;;6.22;;
47713;SDS011;33475;46.614;13.888;2024-01-07T13:13:13;5.72;;;4.45;;
47713;SDS011;33475;46.614;13.888;2024-01-07T13:15:39;4.45;;;3.70;;
47713;SDS011;33475;46.614;13.888;2024-01-07T13:18:06;6.63;;;4.10;;
47713;SDS011;33475;46.614;13.888;2024-01-07T13:20:32;4.85;;;3.83;;
47713;SDS011;33475;46.614;13.888;2024-01-07T13:23:00;6.05;;;4.05;;
47713;SDS011;33475;46.614;13.888;2024-01-07T13:25:29;4.90;;;3.88;;
47713;SDS011;33475;46.614;13.888;2024-01-07T13:27:55;7.05;;;5.43;;
47713;SDS011;33475;46.614;13.888;2024-01-07T13:30:21;4.82;;;3.90;;
47713;SDS011;33475;46.614;13.888;2024-01-07T13:32:48;7.75;;;3.65;;
47713;SDS011;33475;46.614;13.888;2024-01-07T13:35:14;5.65;;;4.25;;
47713;SDS011;33475;46.614;13.888;2024-01-07T13:37:41;91.50;;;44.13;;
47713;SDS011;33475;46.614;13.888;2024-01-07T13:40:08;37.42;;;20.65;;
47713;SDS011;33475;46.614;13.888;2024-01-07T13:42:36;6.10;;;4.90;;
47713;SDS011;33475;46.614;13.888;2024-01-07T13:45:02;14.95;;;10.70;;
47713;SDS011;33475;46.614;13.888;2024-01-07T13:47:29;13.07;;;5.50;;
47713;SDS011;33475;46.614;13.888;2024-01-07T13:49:55;34.25;;;6.75;;
47713;SDS011;33475;46.614;13.888;2024-01-07T13:52:22;6.53;;;3.90;;
47713;SDS011;33475;46.614;13.888;2024-01-07T13:54:48;5.75;;;4.18;;
47713;SDS011;33475;46.614;13.888;2024-01-07T13:57:14;4.25;;;3.42;;
47713;SDS011;33475;46.614;13.888;2024-01-07T13:59:40;12.75;;;8.98;;
47713;SDS011;33475;46.614;13.888;2024-01-07T14:02:07;11.80;;;7.72;;
47713;SDS011;33475;46.614;13.888;2024-01-07T14:04:34;11.98;;;7.80;;
47713;SDS011;33475;46.614;13.888;2024-01-07T14:07:01;4.50;;;3.75;;
47713;SDS011;33475;46.614;13.888;2024-01-07T14:09:27;4.28;;;3.65;;
47713;SDS011;33475;46.614;13.888;2024-01-07T14:11:57;3.88;;;3.42;;
47713;SDS011;33475;46.614;13.888;2024-01-07T14:14:23;3.05;;;2.75;;
47713;SDS011;33475;46.614;13.888;2024-01-07T14:16:49;3.40;;;3.10;;
47713;SDS011;33475;46.614;13.888;2024-01-07T14:19:16;4.45;;;4.05;;
47713;SDS011;33475;46.614;13.888;2024-01-07T14:21:42;3.50;;;3.20;;
47713;SDS011;33475;46.614;13.888;2024-01-07T14:24:08;3.60;;;3.30;;
47713;SDS011;33475;46.614;13.888;2024-01-07T14:26:34;3.15;;;2.90;;
47713;SDS011;33475;46.614;13.888;2024-01-07T14:29:01;3.85;;;3.15;;
47713;SDS011;33475;46.614;13.888;2024-01-07T14:31:29;4.75;;;3.42;;